CYYZ METAR and TAF weather

Enter ICAO airport designator

Example: see airport list

Station Type Date Time Source
CYYZ METAR 2016/06/27 16:00 UTC NOAA

CYYZ 271600Z 26009G19KT 15SM SCT063 SCT250 30/16 A2989 RMK CU3CI1 SLP122 DENSITY ALT 2400FT

Station Type Date Time Source
CYYZ Decoded METAR 2016/06/27 16:00 UTC NOAA

Toronto Pearson Int'L. Ont., Canada (CYYZ) 43-40N 079-38W 173M
Jun 27, 2016 - 12:00 PM EDT / 2016.06.27 1600 UTC
Wind: from the W (260 degrees) at 10 MPH (9 KT) gusting to 22 MPH (19 KT):0
Visibility: 15 mile(s):0
Sky conditions: partly cloudy
Temperature: 86 F (30 C)
Dew Point: 60 F (16 C)
Relative Humidity: 42%
Pressure (altimeter): 29.89 in. Hg (1012 hPa)
ob: CYYZ 271600Z 26009G19KT 15SM SCT063 SCT250 30/16 A2989 RMK CU3CI1 SLP122 DENSITY ALT 2400FT
cycle: 16

Station Type Date Time Source
CYYZ TAF 2016/06/27 15:42 UTC NOAA

TAF CYYZ 271438Z 2715/2818 26012KT P6SM SKC
FM271700 26015G25KT P6SM SCT060
FM272300 28015KT P6SM BKN080
BECMG 2800/2802 32010KT
FM280800 32008KT P6SM FEW040 BKN060
FM281500 32012G22KT P6SM -SHRA FEW025 BKN040
RMK NXT FCST BY 271800Z